EA3GYL La Torregassa ES current weather conditions

sailwx.info

Wind from 049 at 1 knots gusting 4

Air temperature 22.8° C
Dewpoint 21.9° C

Last reported at 2014-Sep-16 20:50 UTC.
Time now 2014-Sep-16 21:33 UTC

Location: N 41°17' E 001°31'.
View on Google Maps.

See reports from other nearby stations

  
Tides and Currents Weather Stations Pressure Air Temp Water Temp Dewpoint Dewpoint Depression Visibility Wind Speed Wind Dir Waves Ship Positions
date/time (UTC)wind fromknots sea level pressurealtimeterstation pressurevisibilityair tempwater tempwave heightnotes
2014-Sep-16 20:50 049 1 gusting 4 22.8
2014-Sep-16 20:40 054 2 gusting 6 22.8
2014-Sep-16 20:30 052 1 gusting 3 22.8
2014-Sep-16 20:20 052 2 gusting 5 22.8
2014-Sep-16 20:10 051 0 gusting 1 22.8
2014-Sep-16 19:50 067 1 gusting 3 23.3
2014-Sep-16 19:40 052 1 gusting 4 23.3
2014-Sep-16 19:30 048 2 gusting 5 23.3
2014-Sep-16 19:20 046 1 gusting 3 22.8
2014-Sep-16 19:10 056 1 gusting 4 22.8
2014-Sep-16 19:00 059 1 gusting 3 22.8
2014-Sep-16 18:50 053 0 gusting 2 22.8
2014-Sep-16 18:40 039 1 gusting 3 22.8
2014-Sep-16 18:30 067 0 gusting 2 22.8
2014-Sep-16 18:20 22.8
2014-Sep-16 18:10 097 0 gusting 4 23.3
2014-Sep-16 18:00 092 1 gusting 5 23.3
2014-Sep-16 17:50 086 2 gusting 5 23.3
2014-Sep-16 17:40 090 3 gusting 6 23.3
2014-Sep-16 17:30 094 3 gusting 6 23.9
2014-Sep-16 17:20 100 3 gusting 7 23.9
2014-Sep-16 17:10 110 3 gusting 6 23.9
2014-Sep-16 17:00 115 2 gusting 6 24.4
2014-Sep-16 16:50 110 4 gusting 8 24.4
2014-Sep-16 16:40 119 3 gusting 6 24.4
2014-Sep-16 16:30 117 3 gusting 8 24.4
2014-Sep-16 16:20 113 2 gusting 6 25.0
2014-Sep-16 16:10 131 3 gusting 6 25.0
2014-Sep-16 16:00 118 3 gusting 6 25.6
2014-Sep-16 15:50 127 2 gusting 6 25.0
2014-Sep-16 15:40 123 3 gusting 8 25.0
2014-Sep-16 15:30 122 3 gusting 7 25.6
2014-Sep-16 15:20 125 4 gusting 8 25.6
2014-Sep-16 15:10 134 4 gusting 7 25.6
2014-Sep-16 15:00 129 3 gusting 6 25.0
2014-Sep-16 14:50 134 4 gusting 8 25.0
2014-Sep-16 14:40 155 4 gusting 8 25.6
2014-Sep-16 14:30 142 5 gusting 8 25.6
2014-Sep-16 14:20 137 5 gusting 10 25.6
2014-Sep-16 14:10 123 5 gusting 9 25.6
2014-Sep-16 14:00 129 5 gusting 9 26.1
2014-Sep-16 13:50 150 6 gusting 11 26.1
2014-Sep-16 13:40 151 6 gusting 11 26.7
2014-Sep-16 13:30 146 6 gusting 12 26.7
2014-Sep-16 13:20 147 6 gusting 10 27.2
2014-Sep-16 13:10 129 5 gusting 11 27.2
2014-Sep-16 13:00 090 3 gusting 8 26.7
2014-Sep-16 12:50 119 2 gusting 9 26.7
2014-Sep-16 12:40 091 2 gusting 7 26.1
2014-Sep-16 12:30 088 2 gusting 6 26.7
2014-Sep-16 12:20 114 3 gusting 8 26.7
2014-Sep-16 12:10 105 2 gusting 6 26.7
2014-Sep-16 12:00 097 3 gusting 6 26.1
2014-Sep-16 11:50 088 2 gusting 6 26.1
2014-Sep-16 11:40 105 4 gusting 8 25.6
2014-Sep-16 11:30 115 3 gusting 8 26.1
2014-Sep-16 11:20 107 3 gusting 7 25.0
2014-Sep-16 11:10 131 3 gusting 7 25.6
2014-Sep-16 11:00 150 3 gusting 8 25.6
2014-Sep-16 10:50 137 1 gusting 7 25.0
2014-Sep-16 10:40 142 1 gusting 6 25.0
2014-Sep-16 10:30 192 3 gusting 7 25.6
2014-Sep-16 10:20 125 0 gusting 5 25.6
2014-Sep-16 10:10 133 1 gusting 6 25.0
2014-Sep-16 10:00 111 2 gusting 7 24.4
2014-Sep-16 09:50 103 3 gusting 6 24.4
2014-Sep-16 09:40 093 3 gusting 9 24.4
2014-Sep-16 09:30 090 3 gusting 8 24.4
2014-Sep-16 09:20 080 3 gusting 6 24.4
2014-Sep-16 09:10 082 3 gusting 6 24.4
2014-Sep-16 09:00 065 3 gusting 7 24.4
2014-Sep-16 08:50 081 3 gusting 8 24.4
2014-Sep-16 08:40 064 3 gusting 7 23.9
2014-Sep-16 08:30 060 3 gusting 6 23.9
2014-Sep-16 08:20 058 4 gusting 10 23.3
2014-Sep-16 08:10 059 5 gusting 10 23.3
2014-Sep-16 08:00 062 4 gusting 10 23.3
2014-Sep-16 07:50 060 4 gusting 9 23.3
2014-Sep-16 07:40 052 3 gusting 8 22.8
2014-Sep-16 07:30 049 3 gusting 8 22.8
2014-Sep-16 07:20 050 2 gusting 4 22.8
2014-Sep-15 22:20 21.1
2014-Sep-15 22:10 21.1
2014-Sep-15 22:00 21.1
2014-Sep-15 21:50 21.1
2014-Sep-15 21:40 298 0 gusting 1 21.1
2014-Sep-15 21:30 280 0 gusting 1 21.1
2014-Sep-15 21:20 21.1
2014-Sep-15 21:10 21.1
2014-Sep-15 21:00 21.1
2014-Sep-15 20:50 21.1
2014-Sep-15 20:40 21.1
2014-Sep-15 20:30 21.7
2014-Sep-15 20:20 21.7
2014-Sep-15 20:10 21.7
2014-Sep-15 20:00 152 0 gusting 1 21.7
2014-Sep-15 19:50 176 0 gusting 2 21.7
2014-Sep-15 19:40 132 1 gusting 3 22.2
2014-Sep-15 19:30 120 0 gusting 2 22.2
2014-Sep-15 19:20 122 0 gusting 1 22.2
2014-Sep-15 19:10 135 0 gusting 2 22.2
2014-Sep-15 19:00 120 0 gusting 2 22.2
2014-Sep-15 18:50 126 0 gusting 2 22.2
2014-Sep-15 18:40 121 0 gusting 2 22.2
2014-Sep-15 18:30 129 0 gusting 2 22.8
2014-Sep-15 18:20 126 0 gusting 3 22.8
2014-Sep-15 18:10 136 0 gusting 2 23.3
2014-Sep-15 18:00 160 0 gusting 2 23.3
2014-Sep-15 17:50 155 0 gusting 3 23.9
2014-Sep-15 17:40 163 0 gusting 2 24.4
2014-Sep-15 17:30 171 0 gusting 3 25.0
2014-Sep-15 17:20 159 0 gusting 2 25.6
2014-Sep-15 17:10 170 0 gusting 3 25.6
2014-Sep-15 17:00 159 1 gusting 3 25.6
2014-Sep-15 16:50 190 2 gusting 5 25.6
2014-Sep-15 16:40 162 3 gusting 6 26.1
2014-Sep-15 16:30 174 2 gusting 6 26.7
2014-Sep-15 16:20 149 2 gusting 4 26.7
2014-Sep-15 16:10 143 3 gusting 6 26.7
2014-Sep-15 16:00 166 2 gusting 6 27.2
2014-Sep-15 15:50 166 2 gusting 6 27.2
2014-Sep-15 15:40 140 3 gusting 6 26.7
2014-Sep-15 15:30 163 3 gusting 6 27.2
2014-Sep-15 15:20 165 2 gusting 6 27.2
2014-Sep-15 15:10 146 3 gusting 6 27.2
2014-Sep-15 15:00 171 2 gusting 7 27.8
2014-Sep-15 14:50 193 1 gusting 5 27.2
2014-Sep-15 14:40 157 3 gusting 6 27.2
2014-Sep-15 14:30 152 4 gusting 8 26.7
2014-Sep-15 14:20 146 4 gusting 7 27.2
2014-Sep-15 14:10 157 4 gusting 8 27.8
2014-Sep-15 14:00 169 3 gusting 6 27.8
2014-Sep-15 13:50 142 3 gusting 8 27.2
2014-Sep-15 13:40 138 2 gusting 6 27.2
2014-Sep-15 13:30 138 3 gusting 6 27.2
2014-Sep-15 13:20 178 3 gusting 6 27.2
2014-Sep-15 13:10 174 1 gusting 5 27.2
2014-Sep-15 13:00 126 3 gusting 7 26.7
2014-Sep-15 12:50 143 2 gusting 7 27.2
2014-Sep-15 12:40 185 2 gusting 6 27.2
2014-Sep-15 12:30 173 1 gusting 6 27.2
2014-Sep-15 12:20 158 2 gusting 6 26.7
2014-Sep-15 12:10 147 3 gusting 6 26.7
2014-Sep-15 12:00 151 2 gusting 9 26.7
2014-Sep-15 11:50 152 3 gusting 7 26.1
2014-Sep-15 11:40 169 3 gusting 8 26.7
2014-Sep-15 09:10 074 3 gusting 6 23.3
2014-Sep-15 09:00 071 3 gusting 6 23.3
2014-Sep-15 08:50 061 3 gusting 6 23.3
2014-Sep-15 08:40 060 3 gusting 6 22.8
2014-Sep-15 08:30 065 3 gusting 6 22.2
2014-Sep-15 08:20 083 4 gusting 7 22.2
2014-Sep-15 08:10 093 3 gusting 7 21.7
2014-Sep-15 08:00 101 3 gusting 6 21.7
2014-Sep-15 07:50 107 0 gusting 4 21.7
2014-Sep-15 07:40 262 0 gusting 2 20.6
2014-Sep-15 07:30 205 1 gusting 3 20.6
2014-Sep-15 07:20 170 0 gusting 3 21.1
2014-Sep-15 07:10 20.0
2014-Sep-15 07:00 18.9
2014-Sep-15 06:50 226 0 gusting 1 18.3
2014-Sep-15 06:40 18.3
2014-Sep-15 06:30 053 0 gusting 3 17.8
2014-Sep-15 06:20 17.2
2014-Sep-15 06:10 17.2
2014-Sep-15 06:00 17.2
2014-Sep-15 05:50 16.7
2014-Sep-15 05:40 16.7
2014-Sep-15 05:30 16.7
2014-Sep-15 05:20 16.7
2014-Sep-15 05:10 16.7
2014-Sep-15 05:00 102 0 gusting 1 17.2
2014-Sep-15 04:50 002 0 gusting 1 17.8
2014-Sep-15 04:40 296 0 gusting 1 17.8
2014-Sep-15 04:30 313 0 gusting 1 17.8
2014-Sep-15 04:20 17.2
2014-Sep-15 04:10 17.8
2014-Sep-15 04:00 17.8
2014-Sep-15 03:50 289 0 gusting 2 17.8
2014-Sep-15 03:40 17.2
2014-Sep-15 03:30 17.2
2014-Sep-15 03:20 17.2
2014-Sep-15 03:10 115 0 gusting 2 18.3
2014-Sep-15 03:00 338 0 gusting 2 19.4
2014-Sep-15 02:50 340 1 gusting 2 18.9
2014-Sep-15 02:40 17.8
2014-Sep-15 02:30 17.8
2014-Sep-15 02:20 17.8
2014-Sep-15 02:10 17.8
2014-Sep-15 02:00 17.8
2014-Sep-15 01:50 17.8
2014-Sep-15 01:40 086 0 gusting 1 17.8
2014-Sep-15 01:30 018 0 gusting 2 18.3
2014-Sep-15 01:20 273 0 gusting 1 18.3
2014-Sep-15 01:10 222 0 gusting 2 18.3
2014-Sep-15 01:00 17.8
2014-Sep-15 00:50 17.8
2014-Sep-15 00:40 17.8
2014-Sep-15 00:30 239 0 gusting 1 17.8
2014-Sep-15 00:20 17.8
2014-Sep-15 00:10 18.3
2014-Sep-15 00:00 225 0 gusting 3 18.9
2014-Sep-14 23:50 056 1 gusting 5 19.4
2014-Sep-14 23:40 029 3 gusting 6 19.4
2014-Sep-14 23:30 095 1 gusting 4 18.3
2014-Sep-14 23:20 088 2 gusting 7 18.9
2014-Sep-14 23:10 011 5 gusting 13 18.9
2014-Sep-14 23:00 026 5 gusting 10 17.8
2014-Sep-14 22:50 050 4 gusting 8 17.8
2014-Sep-14 22:40 065 0 gusting 5 18.3
2014-Sep-14 22:30 064 4 gusting 8 18.3
2014-Sep-14 22:20 048 6 gusting 13 18.9
2014-Sep-14 22:10 005 6 gusting 17 18.9
2014-Sep-14 22:00 350 8 gusting 15 18.9
2014-Sep-14 21:50 341 5 gusting 11 18.9
2014-Sep-14 21:40 357 8 gusting 17 18.9
2014-Sep-14 21:30 002 6 gusting 19 21.1
2014-Sep-14 21:20 042 1 gusting 4 22.8
2014-Sep-14 21:10 045 2 gusting 5 22.8
2014-Sep-14 21:00 053 2 gusting 6 22.8